Pamplona, España

2:06 PM CEST en Agosto 21, 2014 (GMT +0200)
INAVARRA8 | Change Station
CLOSE
Current Station
Estación meteorológica personal
Location: Sarriguren, NAVARRA
Altura: 1486 ft
Estaciones meteorológicas cercanas

Alt 1486 ft 42.81 °N, 1.59 °W | Updated 8 minutes ago

Partly Cloudy
Parcialmente nublado
71.8 ° F
Sensación térmica 77 ° F
N
3.0
Viento Variable Viento desde NO
Gusts 6.0 mph

Hoy
Alta -- | Baja -- ° F
--% Posibilidad de precipitaciones
Ayer
Alta -- | Baja -- ° F
Precip. -- pul
7:19 AM 8:59 PM
Creciente menguante, 14% visible
Presión 30.06 pul
Visibilidad 6.2 Millas
Nubes Baja 4000 ft
Índice de calor 77 ° F
Punto de rocío 53 ° F
Humedad 52%
Precipitaciones 2.26 pul
Espesor de la nieve No disponible.
UV 10 de una escala de 12
Polen No disponible.
Calidad del aire No disponible.
Flu Activity No disponible.
METAR LEPP 211130Z 03003KT 9999 FEW040 22/10 Q1018

More Conditions Fewer Conditions

Presión 30.06 pul
Visibilidad 6.2 Millas
Nubes Baja 4000 ft
Índice de calor 77 ° F
Punto de rocío 53 ° F
Humedad 52%
Precipitaciones 2.26 pul
Espesor de la nieve No disponible.
UV 10 de una escala de 12
Polen No disponible.
Calidad del aire No disponible.
Flu Activity No disponible.
METAR LEPP 211130Z 03003KT 9999 FEW040 22/10 Q1018

More Conditions Fewer Conditions

10-Day Weather Forecast

Almanac

Astronomía

Aug. 21, 2014 Salida Puesta
Hora real 7:19 AM CEST 8:59 PM CEST
Crepúsculo civil 6:49 AM CEST 9:29 PM CEST
Crepúsculo náutico 6:12 AM CEST 10:05 PM CEST
Crepúsculo astronómico 5:33 AM CEST 10:44 PM CEST
Luna 3:34 AM CEST 6:20 PM CEST
Horas de luz 14h 40m
Horas de luz
13h 40m
Tomorrow will be 2m 40s shorter.
Creciente menguante, 14% of the Moon is Illuminated
Hoy
Creciente menguante
Ago 25
Nueva
Sep 2
Cuarto creciente
Sep 8
Luna llena
Sep 15
Cuarto menguante

Extremos de ayer

Máximos del país Bajas del país

Community

WunderPhotos

Upload Photos

1,745,882 ¡fotos cargadas!

Nearby

Calidad del aire

Not available.

Grosos de nieve

Not available.

Actividad de terremotos

Ciudad Distance Mag. Tiempo y dato
No hay informes recientes de la actividad sísmica.
Magnitud mínima muestra es 2,5.

Temperaturas de aguas costeras

Lugar Temperatura
Sin partes meteorológicos de las estaciones

Estaciones meteorológicas cercanas